HEAX

El Nouzha Airport

Alexandria, Egypt
METAR HEAX 151800Z 03002KT 9999 FEW020 17/12 Q1021 NOSIG
Observed Flight Rules
Dec-15 @ 18:00 UTC (2 hours ago) Visual Flight Rules
Wind Visibility Clouds
30° at 2 knots 10,000+ meters
  • Few at 2,000' AGL
Temperatures Readings
Current 17°C / 63°F
Dewpoint 12°C / 54°F
Humidity 73%
Altimeter 30.15" Hg
Pressure 1021 hPa
Elevation 7
METAR HEAX 151800Z 03002KT 9999 FEW020 17/12 Q1021 NOSIG
Observed Flight Rules
Dec-15 @ 18:00 UTC
(2 hours ago)
VFR
Wind Visibility
30° at 2 knots 10,000+ meters
Clouds
  • Few at 2,000' AGL
Temperature Dewpoint
17°C / 63°F 12°C / 54°F
Humidity Altimeter Pressure
73% 30.15" Hg 1021 hPa